sensor_id;sensor_type;location;lat;lon;timestamp;P1;durP1;ratioP1;P2;durP2;ratioP2
48629;SDS011;34426;52.180;4.462;2023-05-07T00:00:10;41.97;;;32.50;;
48629;SDS011;34426;52.180;4.462;2023-05-07T00:02:38;37.95;;;31.45;;
48629;SDS011;34426;52.180;4.462;2023-05-07T00:05:05;36.20;;;29.30;;
48629;SDS011;34426;52.180;4.462;2023-05-07T00:07:33;38.15;;;28.90;;
48629;SDS011;34426;52.180;4.462;2023-05-07T00:10:00;38.50;;;29.25;;
48629;SDS011;34426;52.180;4.462;2023-05-07T00:12:28;35.38;;;29.17;;
48629;SDS011;34426;52.180;4.462;2023-05-07T00:14:55;36.85;;;28.27;;
48629;SDS011;34426;52.180;4.462;2023-05-07T00:17:24;33.28;;;28.38;;
48629;SDS011;34426;52.180;4.462;2023-05-07T00:19:52;38.70;;;27.73;;
48629;SDS011;34426;52.180;4.462;2023-05-07T00:22:19;35.15;;;27.70;;
48629;SDS011;34426;52.180;4.462;2023-05-07T00:24:46;35.63;;;28.70;;
48629;SDS011;34426;52.180;4.462;2023-05-07T00:27:14;34.65;;;27.83;;
48629;SDS011;34426;52.180;4.462;2023-05-07T00:29:41;33.55;;;28.23;;
48629;SDS011;34426;52.180;4.462;2023-05-07T00:32:09;34.63;;;27.17;;
48629;SDS011;34426;52.180;4.462;2023-05-07T00:34:38;38.70;;;29.70;;
48629;SDS011;34426;52.180;4.462;2023-05-07T00:37:05;34.17;;;29.58;;
48629;SDS011;34426;52.180;4.462;2023-05-07T00:39:32;37.33;;;30.88;;
48629;SDS011;34426;52.180;4.462;2023-05-07T00:42:01;37.25;;;31.83;;
48629;SDS011;34426;52.180;4.462;2023-05-07T00:44:28;40.08;;;32.03;;
48629;SDS011;34426;52.180;4.462;2023-05-07T00:46:56;39.75;;;32.25;;
48629;SDS011;34426;52.180;4.462;2023-05-07T00:49:24;42.33;;;33.42;;
48629;SDS011;34426;52.180;4.462;2023-05-07T00:52:03;41.15;;;34.40;;
48629;SDS011;34426;52.180;4.462;2023-05-07T00:54:31;41.28;;;34.35;;
48629;SDS011;34426;52.180;4.462;2023-05-07T00:56:59;47.22;;;35.22;;
48629;SDS011;34426;52.180;4.462;2023-05-07T00:59:27;41.95;;;34.55;;
48629;SDS011;34426;52.180;4.462;2023-05-07T01:01:56;43.80;;;35.08;;
48629;SDS011;34426;52.180;4.462;2023-05-07T01:04:23;43.15;;;35.35;;
48629;SDS011;34426;52.180;4.462;2023-05-07T01:06:50;49.90;;;37.65;;
48629;SDS011;34426;52.180;4.462;2023-05-07T01:09:21;42.83;;;36.70;;
48629;SDS011;34426;52.180;4.462;2023-05-07T01:11:50;40.58;;;34.10;;
48629;SDS011;34426;52.180;4.462;2023-05-07T01:14:18;44.83;;;35.85;;
48629;SDS011;34426;52.180;4.462;2023-05-07T01:16:46;44.80;;;35.97;;
48629;SDS011;34426;52.180;4.462;2023-05-07T01:19:14;48.83;;;40.45;;
48629;SDS011;34426;52.180;4.462;2023-05-07T01:21:44;51.50;;;39.10;;
48629;SDS011;34426;52.180;4.462;2023-05-07T01:24:15;62.78;;;44.60;;
48629;SDS011;34426;52.180;4.462;2023-05-07T01:26:43;63.13;;;47.05;;
48629;SDS011;34426;52.180;4.462;2023-05-07T01:29:10;60.45;;;46.78;;
48629;SDS011;34426;52.180;4.462;2023-05-07T01:31:38;62.67;;;48.40;;
48629;SDS011;34426;52.180;4.462;2023-05-07T01:34:07;57.63;;;46.55;;
48629;SDS011;34426;52.180;4.462;2023-05-07T01:36:38;69.43;;;48.03;;
48629;SDS011;34426;52.180;4.462;2023-05-07T01:39:08;66.03;;;47.38;;
48629;SDS011;34426;52.180;4.462;2023-05-07T01:41:38;69.38;;;48.60;;
48629;SDS011;34426;52.180;4.462;2023-05-07T01:44:05;63.50;;;46.03;;
48629;SDS011;34426;52.180;4.462;2023-05-07T01:46:33;59.80;;;46.17;;
48629;SDS011;34426;52.180;4.462;2023-05-07T01:49:01;59.05;;;43.78;;
48629;SDS011;34426;52.180;4.462;2023-05-07T01:51:29;59.22;;;44.65;;
48629;SDS011;34426;52.180;4.462;2023-05-07T01:53:57;59.15;;;43.65;;
48629;SDS011;34426;52.180;4.462;2023-05-07T01:56:24;58.17;;;43.15;;
48629;SDS011;34426;52.180;4.462;2023-05-07T01:58:53;56.00;;;43.35;;
48629;SDS011;34426;52.180;4.462;2023-05-07T02:01:20;52.55;;;41.35;;
48629;SDS011;34426;52.180;4.462;2023-05-07T02:03:48;56.45;;;41.30;;
48629;SDS011;34426;52.180;4.462;2023-05-07T02:06:15;55.25;;;41.42;;
48629;SDS011;34426;52.180;4.462;2023-05-07T02:08:43;55.17;;;42.75;;
48629;SDS011;34426;52.180;4.462;2023-05-07T02:11:10;58.92;;;42.28;;
48629;SDS011;34426;52.180;4.462;2023-05-07T02:13:37;55.05;;;40.70;;
48629;SDS011;34426;52.180;4.462;2023-05-07T02:16:07;57.70;;;42.20;;
48629;SDS011;34426;52.180;4.462;2023-05-07T02:18:34;51.45;;;38.95;;
48629;SDS011;34426;52.180;4.462;2023-05-07T02:21:01;53.85;;;40.03;;
48629;SDS011;34426;52.180;4.462;2023-05-07T02:23:29;51.28;;;39.35;;
48629;SDS011;34426;52.180;4.462;2023-05-07T02:25:57;46.83;;;37.53;;
48629;SDS011;34426;52.180;4.462;2023-05-07T02:28:24;52.50;;;37.67;;
48629;SDS011;34426;52.180;4.462;2023-05-07T02:30:51;49.88;;;37.40;;
48629;SDS011;34426;52.180;4.462;2023-05-07T02:33:20;45.17;;;37.13;;
48629;SDS011;34426;52.180;4.462;2023-05-07T02:35:47;43.22;;;36.58;;
48629;SDS011;34426;52.180;4.462;2023-05-07T02:38:15;43.83;;;35.38;;
48629;SDS011;34426;52.180;4.462;2023-05-07T02:40:42;42.60;;;34.30;;
48629;SDS011;34426;52.180;4.462;2023-05-07T02:43:09;44.03;;;34.63;;
48629;SDS011;34426;52.180;4.462;2023-05-07T02:45:36;41.38;;;35.05;;
48629;SDS011;34426;52.180;4.462;2023-05-07T02:48:04;39.55;;;33.65;;
48629;SDS011;34426;52.180;4.462;2023-05-07T02:50:33;43.28;;;34.72;;
48629;SDS011;34426;52.180;4.462;2023-05-07T02:53:00;42.00;;;33.78;;
48629;SDS011;34426;52.180;4.462;2023-05-07T02:55:28;48.22;;;34.50;;
48629;SDS011;34426;52.180;4.462;2023-05-07T02:57:55;40.88;;;32.58;;
48629;SDS011;34426;52.180;4.462;2023-05-07T03:00:23;39.90;;;32.42;;
48629;SDS011;34426;52.180;4.462;2023-05-07T03:02:51;39.65;;;33.45;;
48629;SDS011;34426;52.180;4.462;2023-05-07T03:05:18;39.28;;;33.28;;
48629;SDS011;34426;52.180;4.462;2023-05-07T03:07:47;36.45;;;32.55;;
48629;SDS011;34426;52.180;4.462;2023-05-07T03:10:15;38.10;;;32.83;;
48629;SDS011;34426;52.180;4.462;2023-05-07T03:12:42;38.75;;;32.00;;
48629;SDS011;34426;52.180;4.462;2023-05-07T03:15:10;39.88;;;32.38;;
48629;SDS011;34426;52.180;4.462;2023-05-07T03:17:38;35.58;;;31.77;;
48629;SDS011;34426;52.180;4.462;2023-05-07T03:20:05;34.03;;;30.10;;
48629;SDS011;34426;52.180;4.462;2023-05-07T03:22:34;37.35;;;31.45;;
48629;SDS011;34426;52.180;4.462;2023-05-07T03:25:03;37.05;;;30.45;;
48629;SDS011;34426;52.180;4.462;2023-05-07T03:27:31;38.08;;;31.35;;
48629;SDS011;34426;52.180;4.462;2023-05-07T03:29:58;37.60;;;31.42;;
48629;SDS011;34426;52.180;4.462;2023-05-07T03:32:26;36.72;;;30.50;;
48629;SDS011;34426;52.180;4.462;2023-05-07T03:34:53;32.90;;;29.40;;
48629;SDS011;34426;52.180;4.462;2023-05-07T03:37:21;36.15;;;29.73;;
48629;SDS011;34426;52.180;4.462;2023-05-07T03:39:48;33.03;;;29.20;;
48629;SDS011;34426;52.180;4.462;2023-05-07T03:42:17;37.05;;;29.63;;
48629;SDS011;34426;52.180;4.462;2023-05-07T03:44:45;33.53;;;28.95;;
48629;SDS011;34426;52.180;4.462;2023-05-07T03:47:12;32.33;;;28.50;;
48629;SDS011;34426;52.180;4.462;2023-05-07T03:49:39;37.17;;;29.65;;
48629;SDS011;34426;52.180;4.462;2023-05-07T03:52:06;37.60;;;29.27;;
48629;SDS011;34426;52.180;4.462;2023-05-07T03:54:34;34.03;;;29.73;;
48629;SDS011;34426;52.180;4.462;2023-05-07T03:57:01;33.72;;;28.40;;
48629;SDS011;34426;52.180;4.462;2023-05-07T03:59:30;31.75;;;28.10;;
48629;SDS011;34426;52.180;4.462;2023-05-07T04:01:58;31.95;;;26.75;;
48629;SDS011;34426;52.180;4.462;2023-05-07T04:04:25;34.80;;;27.25;;
48629;SDS011;34426;52.180;4.462;2023-05-07T04:06:52;32.58;;;26.55;;
48629;SDS011;34426;52.180;4.462;2023-05-07T04:09:20;35.00;;;27.10;;
48629;SDS011;34426;52.180;4.462;2023-05-07T04:11:47;33.95;;;26.98;;
48629;SDS011;34426;52.180;4.462;2023-05-07T04:14:14;30.02;;;26.40;;
48629;SDS011;34426;52.180;4.462;2023-05-07T04:16:43;35.65;;;26.35;;
48629;SDS011;34426;52.180;4.462;2023-05-07T04:19:10;27.48;;;23.65;;
48629;SDS011;34426;52.180;4.462;2023-05-07T04:21:38;29.17;;;24.20;;
48629;SDS011;34426;52.180;4.462;2023-05-07T04:24:05;28.98;;;24.67;;
48629;SDS011;34426;52.180;4.462;2023-05-07T04:26:33;29.55;;;24.48;;
48629;SDS011;34426;52.180;4.462;2023-05-07T04:29:00;34.30;;;24.17;;
48629;SDS011;34426;52.180;4.462;2023-05-07T04:31:27;30.27;;;24.25;;
48629;SDS011;34426;52.180;4.462;2023-05-07T04:33:56;26.90;;;23.67;;
48629;SDS011;34426;52.180;4.462;2023-05-07T04:36:24;28.63;;;23.45;;
48629;SDS011;34426;52.180;4.462;2023-05-07T04:38:51;31.90;;;23.70;;
48629;SDS011;34426;52.180;4.462;2023-05-07T04:41:18;27.85;;;23.45;;
48629;SDS011;34426;52.180;4.462;2023-05-07T04:43:46;26.63;;;22.25;;
48629;SDS011;34426;52.180;4.462;2023-05-07T04:46:13;28.45;;;22.15;;
48629;SDS011;34426;52.180;4.462;2023-05-07T04:48:41;24.95;;;22.42;;
48629;SDS011;34426;52.180;4.462;2023-05-07T04:51:10;26.02;;;21.92;;
48629;SDS011;34426;52.180;4.462;2023-05-07T04:53:37;26.55;;;23.70;;
48629;SDS011;34426;52.180;4.462;2023-05-07T04:56:05;25.02;;;21.38;;
48629;SDS011;34426;52.180;4.462;2023-05-07T04:58:32;27.60;;;22.27;;
48629;SDS011;34426;52.180;4.462;2023-05-07T05:00:59;25.73;;;21.58;;
48629;SDS011;34426;52.180;4.462;2023-05-07T05:03:26;26.67;;;22.20;;
48629;SDS011;34426;52.180;4.462;2023-05-07T05:05:56;25.50;;;22.70;;
48629;SDS011;34426;52.180;4.462;2023-05-07T05:08:25;26.77;;;21.98;;
48629;SDS011;34426;52.180;4.462;2023-05-07T05:10:52;23.83;;;21.15;;
48629;SDS011;34426;52.180;4.462;2023-05-07T05:13:20;24.88;;;21.25;;
48629;SDS011;34426;52.180;4.462;2023-05-07T05:15:47;23.33;;;20.83;;
48629;SDS011;34426;52.180;4.462;2023-05-07T05:18:15;23.63;;;20.77;;
48629;SDS011;34426;52.180;4.462;2023-05-07T05:20:42;22.40;;;20.08;;
48629;SDS011;34426;52.180;4.462;2023-05-07T05:23:10;24.00;;;19.33;;
48629;SDS011;34426;52.180;4.462;2023-05-07T05:25:39;22.63;;;19.25;;
48629;SDS011;34426;52.180;4.462;2023-05-07T05:28:06;19.58;;;17.58;;
48629;SDS011;34426;52.180;4.462;2023-05-07T05:30:33;22.80;;;19.40;;
48629;SDS011;34426;52.180;4.462;2023-05-07T05:33:01;20.27;;;18.35;;
48629;SDS011;34426;52.180;4.462;2023-05-07T05:35:29;20.90;;;17.33;;
48629;SDS011;34426;52.180;4.462;2023-05-07T05:37:56;20.70;;;17.00;;
48629;SDS011;34426;52.180;4.462;2023-05-07T05:40:24;20.52;;;17.45;;
48629;SDS011;34426;52.180;4.462;2023-05-07T05:42:53;19.70;;;17.60;;
48629;SDS011;34426;52.180;4.462;2023-05-07T05:45:20;20.05;;;16.88;;
48629;SDS011;34426;52.180;4.462;2023-05-07T05:47:48;20.80;;;17.80;;
48629;SDS011;34426;52.180;4.462;2023-05-07T05:50:15;22.08;;;16.90;;
48629;SDS011;34426;52.180;4.462;2023-05-07T05:52:43;27.70;;;16.75;;
48629;SDS011;34426;52.180;4.462;2023-05-07T05:55:10;19.58;;;15.73;;
48629;SDS011;34426;52.180;4.462;2023-05-07T05:57:37;18.42;;;16.27;;
48629;SDS011;34426;52.180;4.462;2023-05-07T06:00:07;21.27;;;16.58;;
48629;SDS011;34426;52.180;4.462;2023-05-07T06:02:35;24.45;;;16.98;;
48629;SDS011;34426;52.180;4.462;2023-05-07T06:05:03;20.88;;;16.58;;
48629;SDS011;34426;52.180;4.462;2023-05-07T06:07:31;21.08;;;17.00;;
48629;SDS011;34426;52.180;4.462;2023-05-07T06:09:58;18.45;;;16.50;;
48629;SDS011;34426;52.180;4.462;2023-05-07T06:12:25;19.40;;;16.20;;
48629;SDS011;34426;52.180;4.462;2023-05-07T06:14:52;19.55;;;16.02;;
48629;SDS011;34426;52.180;4.462;2023-05-07T06:17:22;21.88;;;16.77;;
48629;SDS011;34426;52.180;4.462;2023-05-07T06:19:49;20.77;;;16.10;;
48629;SDS011;34426;52.180;4.462;2023-05-07T06:22:17;22.15;;;16.33;;
48629;SDS011;34426;52.180;4.462;2023-05-07T06:24:44;22.35;;;18.20;;
48629;SDS011;34426;52.180;4.462;2023-05-07T06:27:12;19.88;;;16.85;;
48629;SDS011;34426;52.180;4.462;2023-05-07T06:29:39;24.75;;;18.45;;
48629;SDS011;34426;52.180;4.462;2023-05-07T06:32:06;20.35;;;18.25;;
48629;SDS011;34426;52.180;4.462;2023-05-07T06:34:36;24.90;;;19.02;;
48629;SDS011;34426;52.180;4.462;2023-05-07T06:37:04;25.33;;;19.92;;
48629;SDS011;34426;52.180;4.462;2023-05-07T06:39:32;23.38;;;19.45;;
48629;SDS011;34426;52.180;4.462;2023-05-07T06:41:59;26.33;;;20.45;;
48629;SDS011;34426;52.180;4.462;2023-05-07T06:44:27;24.55;;;20.67;;
48629;SDS011;34426;52.180;4.462;2023-05-07T06:46:54;24.83;;;20.00;;
48629;SDS011;34426;52.180;4.462;2023-05-07T06:49:22;25.13;;;22.42;;
48629;SDS011;34426;52.180;4.462;2023-05-07T06:51:51;30.58;;;22.00;;
48629;SDS011;34426;52.180;4.462;2023-05-07T06:54:18;34.97;;;22.75;;
48629;SDS011;34426;52.180;4.462;2023-05-07T06:56:46;26.23;;;22.10;;
48629;SDS011;34426;52.180;4.462;2023-05-07T06:59:13;26.48;;;21.60;;
48629;SDS011;34426;52.180;4.462;2023-05-07T07:01:40;28.00;;;21.92;;
48629;SDS011;34426;52.180;4.462;2023-05-07T07:04:08;27.70;;;20.80;;
48629;SDS011;34426;52.180;4.462;2023-05-07T07:06:35;25.42;;;21.60;;
48629;SDS011;34426;52.180;4.462;2023-05-07T07:09:04;28.10;;;22.33;;
48629;SDS011;34426;52.180;4.462;2023-05-07T07:11:32;28.85;;;21.85;;
48629;SDS011;34426;52.180;4.462;2023-05-07T07:13:59;25.48;;;22.45;;
48629;SDS011;34426;52.180;4.462;2023-05-07T07:16:26;26.98;;;23.35;;
48629;SDS011;34426;52.180;4.462;2023-05-07T07:18:53;27.23;;;22.83;;
48629;SDS011;34426;52.180;4.462;2023-05-07T07:21:20;27.73;;;21.20;;
48629;SDS011;34426;52.180;4.462;2023-05-07T07:23:46;27.55;;;23.48;;
48629;SDS011;34426;52.180;4.462;2023-05-07T07:26:16;25.67;;;20.55;;
48629;SDS011;34426;52.180;4.462;2023-05-07T07:28:43;24.15;;;20.13;;
48629;SDS011;34426;52.180;4.462;2023-05-07T07:31:11;27.90;;;20.75;;
48629;SDS011;34426;52.180;4.462;2023-05-07T07:33:39;25.45;;;21.23;;
48629;SDS011;34426;52.180;4.462;2023-05-07T07:36:06;24.30;;;19.33;;
48629;SDS011;34426;52.180;4.462;2023-05-07T07:38:34;21.23;;;18.50;;
48629;SDS011;34426;52.180;4.462;2023-05-07T07:41:01;21.75;;;18.52;;
48629;SDS011;34426;52.180;4.462;2023-05-07T07:43:31;23.48;;;19.17;;
48629;SDS011;34426;52.180;4.462;2023-05-07T07:45:57;25.02;;;20.60;;
48629;SDS011;34426;52.180;4.462;2023-05-07T07:48:23;22.85;;;19.00;;
48629;SDS011;34426;52.180;4.462;2023-05-07T07:50:50;20.15;;;17.00;;
48629;SDS011;34426;52.180;4.462;2023-05-07T07:53:18;21.85;;;17.85;;
48629;SDS011;34426;52.180;4.462;2023-05-07T07:55:46;24.52;;;18.80;;
48629;SDS011;34426;52.180;4.462;2023-05-07T07:58:13;26.95;;;17.35;;
48629;SDS011;34426;52.180;4.462;2023-05-07T08:00:42;24.50;;;17.52;;
48629;SDS011;34426;52.180;4.462;2023-05-07T08:03:10;23.00;;;17.40;;
48629;SDS011;34426;52.180;4.462;2023-05-07T08:05:37;20.95;;;16.17;;
48629;SDS011;34426;52.180;4.462;2023-05-07T08:08:04;25.95;;;16.95;;
48629;SDS011;34426;52.180;4.462;2023-05-07T08:10:32;20.50;;;15.27;;
48629;SDS011;34426;52.180;4.462;2023-05-07T08:13:00;19.98;;;14.65;;
48629;SDS011;34426;52.180;4.462;2023-05-07T08:15:27;17.23;;;13.55;;
48629;SDS011;34426;52.180;4.462;2023-05-07T08:17:56;18.80;;;11.95;;
48629;SDS011;34426;52.180;4.462;2023-05-07T08:20:24;17.92;;;9.48;;
48629;SDS011;34426;52.180;4.462;2023-05-07T08:22:51;15.95;;;9.05;;
48629;SDS011;34426;52.180;4.462;2023-05-07T08:25:19;17.52;;;7.88;;
48629;SDS011;34426;52.180;4.462;2023-05-07T08:27:46;19.20;;;9.48;;
48629;SDS011;34426;52.180;4.462;2023-05-07T08:30:13;13.75;;;8.52;;
48629;SDS011;34426;52.180;4.462;2023-05-07T08:32:41;13.40;;;8.20;;
48629;SDS011;34426;52.180;4.462;2023-05-07T08:35:10;20.05;;;8.82;;
48629;SDS011;34426;52.180;4.462;2023-05-07T08:37:38;17.02;;;8.88;;
48629;SDS011;34426;52.180;4.462;2023-05-07T08:40:05;14.50;;;8.55;;
48629;SDS011;34426;52.180;4.462;2023-05-07T08:42:35;13.70;;;8.00;;
48629;SDS011;34426;52.180;4.462;2023-05-07T08:45:03;16.98;;;8.57;;
48629;SDS011;34426;52.180;4.462;2023-05-07T08:47:38;15.52;;;7.63;;
48629;SDS011;34426;52.180;4.462;2023-05-07T08:50:10;14.77;;;7.05;;
48629;SDS011;34426;52.180;4.462;2023-05-07T08:52:39;12.45;;;7.38;;
48629;SDS011;34426;52.180;4.462;2023-05-07T08:55:07;13.68;;;5.80;;
48629;SDS011;34426;52.180;4.462;2023-05-07T08:57:35;12.02;;;7.15;;
48629;SDS011;34426;52.180;4.462;2023-05-07T09:00:02;12.90;;;7.03;;
48629;SDS011;34426;52.180;4.462;2023-05-07T09:02:30;14.60;;;6.63;;
48629;SDS011;34426;52.180;4.462;2023-05-07T09:04:58;14.57;;;6.95;;
48629;SDS011;34426;52.180;4.462;2023-05-07T09:07:27;15.38;;;5.95;;
48629;SDS011;34426;52.180;4.462;2023-05-07T09:09:55;13.35;;;4.70;;
48629;SDS011;34426;52.180;4.462;2023-05-07T09:12:23;12.02;;;4.47;;
48629;SDS011;34426;52.180;4.462;2023-05-07T09:14:51;10.25;;;4.45;;
48629;SDS011;34426;52.180;4.462;2023-05-07T09:17:18;9.02;;;3.70;;
48629;SDS011;34426;52.180;4.462;2023-05-07T09:19:45;9.82;;;3.45;;
48629;SDS011;34426;52.180;4.462;2023-05-07T09:22:13;12.23;;;4.30;;
48629;SDS011;34426;52.180;4.462;2023-05-07T09:24:41;10.43;;;4.05;;
48629;SDS011;34426;52.180;4.462;2023-05-07T09:27:14;8.73;;;3.28;;
48629;SDS011;34426;52.180;4.462;2023-05-07T09:29:41;9.90;;;3.67;;
48629;SDS011;34426;52.180;4.462;2023-05-07T09:32:10;9.93;;;4.53;;
48629;SDS011;34426;52.180;4.462;2023-05-07T09:34:37;10.30;;;4.53;;
48629;SDS011;34426;52.180;4.462;2023-05-07T09:37:05;9.77;;;4.50;;
48629;SDS011;34426;52.180;4.462;2023-05-07T09:42:23;9.77;;;4.57;;
48629;SDS011;34426;52.180;4.462;2023-05-07T09:44:50;11.00;;;4.93;;
48629;SDS011;34426;52.180;4.462;2023-05-07T09:47:18;13.75;;;7.32;;
48629;SDS011;34426;52.180;4.462;2023-05-07T09:49:46;12.55;;;6.18;;
48629;SDS011;34426;52.180;4.462;2023-05-07T09:52:14;12.55;;;6.78;;
48629;SDS011;34426;52.180;4.462;2023-05-07T09:54:42;12.95;;;6.18;;
48629;SDS011;34426;52.180;4.462;2023-05-07T09:57:12;14.82;;;6.95;;
48629;SDS011;34426;52.180;4.462;2023-05-07T09:59:41;13.40;;;6.30;;
48629;SDS011;34426;52.180;4.462;2023-05-07T10:02:09;13.70;;;6.60;;
48629;SDS011;34426;52.180;4.462;2023-05-07T10:04:37;11.05;;;5.95;;
48629;SDS011;34426;52.180;4.462;2023-05-07T10:07:05;16.55;;;6.40;;
48629;SDS011;34426;52.180;4.462;2023-05-07T10:09:34;17.52;;;6.47;;
48629;SDS011;34426;52.180;4.462;2023-05-07T10:12:02;13.38;;;5.47;;
48629;SDS011;34426;52.180;4.462;2023-05-07T10:14:32;11.95;;;5.35;;
48629;SDS011;34426;52.180;4.462;2023-05-07T10:17:00;11.63;;;5.78;;
48629;SDS011;34426;52.180;4.462;2023-05-07T10:19:27;11.50;;;5.40;;
48629;SDS011;34426;52.180;4.462;2023-05-07T10:22:01;13.85;;;6.75;;
48629;SDS011;34426;52.180;4.462;2023-05-07T10:24:31;12.15;;;6.82;;
48629;SDS011;34426;52.180;4.462;2023-05-07T10:26:59;10.85;;;6.45;;
48629;SDS011;34426;52.180;4.462;2023-05-07T10:29:30;14.43;;;6.53;;
48629;SDS011;34426;52.180;4.462;2023-05-07T10:32:09;9.32;;;6.85;;
48629;SDS011;34426;52.180;4.462;2023-05-07T10:34:53;15.73;;;6.40;;
48629;SDS011;34426;52.180;4.462;2023-05-07T10:37:24;13.70;;;5.90;;
48629;SDS011;34426;52.180;4.462;2023-05-07T10:39:52;11.27;;;5.60;;
48629;SDS011;34426;52.180;4.462;2023-05-07T10:42:20;16.10;;;5.72;;
48629;SDS011;34426;52.180;4.462;2023-05-07T10:44:49;13.40;;;6.95;;
48629;SDS011;34426;52.180;4.462;2023-05-07T10:47:17;15.82;;;6.65;;
48629;SDS011;34426;52.180;4.462;2023-05-07T10:55:35;9.70;;;5.35;;
48629;SDS011;34426;52.180;4.462;2023-05-07T11:00:55;12.18;;;5.18;;
48629;SDS011;34426;52.180;4.462;2023-05-07T11:05:53;12.60;;;5.43;;
48629;SDS011;34426;52.180;4.462;2023-05-07T11:11:45;12.18;;;4.82;;
48629;SDS011;34426;52.180;4.462;2023-05-07T11:14:13;10.32;;;4.50;;
48629;SDS011;34426;52.180;4.462;2023-05-07T11:16:42;11.13;;;4.55;;
48629;SDS011;34426;52.180;4.462;2023-05-07T11:19:10;12.02;;;5.25;;
48629;SDS011;34426;52.180;4.462;2023-05-07T11:21:38;10.02;;;4.30;;
48629;SDS011;34426;52.180;4.462;2023-05-07T11:24:06;10.88;;;4.70;;
48629;SDS011;34426;52.180;4.462;2023-05-07T11:26:47;14.10;;;5.50;;
48629;SDS011;34426;52.180;4.462;2023-05-07T11:29:15;13.50;;;5.05;;
48629;SDS011;34426;52.180;4.462;2023-05-07T11:31:45;18.10;;;5.25;;
48629;SDS011;34426;52.180;4.462;2023-05-07T11:34:15;9.13;;;4.53;;
48629;SDS011;34426;52.180;4.462;2023-05-07T11:36:48;11.85;;;4.88;;
48629;SDS011;34426;52.180;4.462;2023-05-07T11:39:25;15.70;;;5.55;;
48629;SDS011;34426;52.180;4.462;2023-05-07T11:41:53;14.77;;;4.70;;
48629;SDS011;34426;52.180;4.462;2023-05-07T11:44:21;13.18;;;6.35;;
48629;SDS011;34426;52.180;4.462;2023-05-07T11:46:50;19.23;;;7.53;;
48629;SDS011;34426;52.180;4.462;2023-05-07T11:49:18;19.70;;;9.57;;
48629;SDS011;34426;52.180;4.462;2023-05-07T11:51:46;18.17;;;9.63;;
48629;SDS011;34426;52.180;4.462;2023-05-07T11:54:15;21.85;;;11.00;;
48629;SDS011;34426;52.180;4.462;2023-05-07T11:56:44;26.52;;;12.55;;
48629;SDS011;34426;52.180;4.462;2023-05-07T11:59:17;19.50;;;10.98;;
48629;SDS011;34426;52.180;4.462;2023-05-07T12:01:45;24.08;;;11.13;;
48629;SDS011;34426;52.180;4.462;2023-05-07T12:04:16;23.05;;;11.30;;
48629;SDS011;34426;52.180;4.462;2023-05-07T12:06:46;25.98;;;12.18;;
48629;SDS011;34426;52.180;4.462;2023-05-07T12:09:13;27.98;;;10.90;;
48629;SDS011;34426;52.180;4.462;2023-05-07T12:11:40;27.70;;;12.32;;
48629;SDS011;34426;52.180;4.462;2023-05-07T12:14:12;28.15;;;12.27;;
48629;SDS011;34426;52.180;4.462;2023-05-07T12:16:40;31.98;;;12.57;;
48629;SDS011;34426;52.180;4.462;2023-05-07T12:19:10;30.48;;;12.48;;
48629;SDS011;34426;52.180;4.462;2023-05-07T12:21:39;36.97;;;12.90;;
48629;SDS011;34426;52.180;4.462;2023-05-07T12:24:08;37.55;;;13.90;;
48629;SDS011;34426;52.180;4.462;2023-05-07T12:26:37;40.30;;;14.73;;
48629;SDS011;34426;52.180;4.462;2023-05-07T12:29:05;41.80;;;16.30;;
48629;SDS011;34426;52.180;4.462;2023-05-07T12:31:32;39.08;;;16.80;;
48629;SDS011;34426;52.180;4.462;2023-05-07T12:33:59;39.47;;;18.23;;
48629;SDS011;34426;52.180;4.462;2023-05-07T12:36:35;39.35;;;18.50;;
48629;SDS011;34426;52.180;4.462;2023-05-07T12:39:06;39.83;;;18.13;;
48629;SDS011;34426;52.180;4.462;2023-05-07T12:41:36;44.95;;;18.77;;
48629;SDS011;34426;52.180;4.462;2023-05-07T12:44:18;38.53;;;18.77;;
48629;SDS011;34426;52.180;4.462;2023-05-07T12:46:47;42.13;;;17.70;;
48629;SDS011;34426;52.180;4.462;2023-05-07T12:49:15;44.78;;;18.38;;
48629;SDS011;34426;52.180;4.462;2023-05-07T12:51:42;44.10;;;17.85;;
48629;SDS011;34426;52.180;4.462;2023-05-07T12:54:11;45.35;;;17.83;;
48629;SDS011;34426;52.180;4.462;2023-05-07T12:56:39;48.38;;;18.83;;
48629;SDS011;34426;52.180;4.462;2023-05-07T12:59:07;36.65;;;14.98;;
48629;SDS011;34426;52.180;4.462;2023-05-07T13:01:37;33.25;;;13.15;;
48629;SDS011;34426;52.180;4.462;2023-05-07T13:04:04;29.60;;;13.85;;
48629;SDS011;34426;52.180;4.462;2023-05-07T13:06:32;34.58;;;14.80;;
48629;SDS011;34426;52.180;4.462;2023-05-07T13:09:00;36.72;;;15.43;;
48629;SDS011;34426;52.180;4.462;2023-05-07T13:11:29;28.30;;;14.88;;
48629;SDS011;34426;52.180;4.462;2023-05-07T13:13:56;31.50;;;13.52;;
48629;SDS011;34426;52.180;4.462;2023-05-07T13:16:24;29.00;;;13.85;;
48629;SDS011;34426;52.180;4.462;2023-05-07T13:18:51;21.55;;;10.10;;
48629;SDS011;34426;52.180;4.462;2023-05-07T13:21:18;22.30;;;9.85;;
48629;SDS011;34426;52.180;4.462;2023-05-07T13:23:46;17.45;;;9.05;;
48629;SDS011;34426;52.180;4.462;2023-05-07T13:26:13;31.52;;;11.68;;
48629;SDS011;34426;52.180;4.462;2023-05-07T13:28:42;26.73;;;9.32;;
48629;SDS011;34426;52.180;4.462;2023-05-07T13:31:09;20.42;;;9.38;;
48629;SDS011;34426;52.180;4.462;2023-05-07T13:33:37;25.95;;;11.65;;
48629;SDS011;34426;52.180;4.462;2023-05-07T13:36:05;23.70;;;10.48;;
48629;SDS011;34426;52.180;4.462;2023-05-07T13:38:32;26.55;;;10.13;;
48629;SDS011;34426;52.180;4.462;2023-05-07T13:40:59;25.80;;;13.18;;
48629;SDS011;34426;52.180;4.462;2023-05-07T13:43:27;28.75;;;13.50;;
48629;SDS011;34426;52.180;4.462;2023-05-07T13:45:56;24.88;;;15.05;;
48629;SDS011;34426;52.180;4.462;2023-05-07T13:48:23;29.92;;;15.43;;
48629;SDS011;34426;52.180;4.462;2023-05-07T13:50:51;27.38;;;16.15;;
48629;SDS011;34426;52.180;4.462;2023-05-07T13:53:18;28.73;;;16.15;;
48629;SDS011;34426;52.180;4.462;2023-05-07T13:55:45;26.00;;;16.10;;
48629;SDS011;34426;52.180;4.462;2023-05-07T13:58:13;25.58;;;18.23;;
48629;SDS011;34426;52.180;4.462;2023-05-07T14:00:40;23.95;;;17.30;;
48629;SDS011;34426;52.180;4.462;2023-05-07T14:03:09;27.27;;;18.85;;
48629;SDS011;34426;52.180;4.462;2023-05-07T14:05:37;28.05;;;18.58;;
48629;SDS011;34426;52.180;4.462;2023-05-07T14:08:04;23.27;;;17.58;;
48629;SDS011;34426;52.180;4.462;2023-05-07T14:10:32;28.83;;;17.33;;
48629;SDS011;34426;52.180;4.462;2023-05-07T14:12:59;25.63;;;18.05;;
48629;SDS011;34426;52.180;4.462;2023-05-07T14:15:27;23.25;;;18.42;;
48629;SDS011;34426;52.180;4.462;2023-05-07T14:17:55;24.25;;;17.10;;
48629;SDS011;34426;52.180;4.462;2023-05-07T14:20:24;27.58;;;18.77;;
48629;SDS011;34426;52.180;4.462;2023-05-07T14:22:52;29.83;;;19.58;;
48629;SDS011;34426;52.180;4.462;2023-05-07T14:25:20;29.90;;;21.17;;
48629;SDS011;34426;52.180;4.462;2023-05-07T14:27:47;31.77;;;21.83;;
48629;SDS011;34426;52.180;4.462;2023-05-07T14:30:14;35.80;;;22.67;;
48629;SDS011;34426;52.180;4.462;2023-05-07T14:32:42;29.13;;;22.05;;
48629;SDS011;34426;52.180;4.462;2023-05-07T14:35:10;33.63;;;23.92;;
48629;SDS011;34426;52.180;4.462;2023-05-07T14:37:40;34.47;;;24.17;;
48629;SDS011;34426;52.180;4.462;2023-05-07T14:40:07;35.92;;;22.50;;
48629;SDS011;34426;52.180;4.462;2023-05-07T14:42:36;32.78;;;22.65;;
48629;SDS011;34426;52.180;4.462;2023-05-07T14:45:03;33.33;;;22.05;;
48629;SDS011;34426;52.180;4.462;2023-05-07T14:47:31;34.22;;;22.02;;